createdAt,value
2017-12-12T00:02:15.053Z,66.40
2017-12-12T00:04:42.712Z,66.70
2017-12-12T00:07:10.333Z,66.10
2017-12-12T00:09:37.949Z,66.20
2017-12-12T00:12:05.589Z,67.00
2017-12-12T00:14:33.203Z,65.60
2017-12-12T00:17:00.850Z,66.20
2017-12-12T00:19:29.308Z,69.00
2017-12-12T00:21:56.949Z,69.00
2017-12-12T00:24:24.604Z,70.20
2017-12-12T00:26:52.227Z,70.60
2017-12-12T00:29:19.885Z,70.30
2017-12-12T00:31:47.506Z,71.60
2017-12-12T00:34:15.148Z,71.90
2017-12-12T00:36:42.790Z,72.60
2017-12-12T00:39:10.401Z,72.50
2017-12-12T00:41:38.806Z,72.10
2017-12-12T00:44:06.492Z,72.00
2017-12-12T00:46:34.106Z,71.50
2017-12-12T00:49:01.766Z,71.10
2017-12-12T00:51:29.394Z,70.20
2017-12-12T00:53:57.038Z,69.90
2017-12-12T00:56:24.645Z,68.50
2017-12-12T00:58:52.286Z,67.80
2017-12-12T01:01:20.714Z,64.90
2017-12-12T01:03:48.342Z,64.90
2017-12-12T01:06:16.018Z,63.90
2017-12-12T01:08:43.719Z,63.60
2017-12-12T01:11:11.338Z,62.50
2017-12-12T01:13:39.776Z,62.90
2017-12-12T01:16:07.397Z,62.80
2017-12-12T01:18:35.046Z,62.30
2017-12-12T01:21:02.675Z,61.90
2017-12-12T01:23:30.290Z,61.30
2017-12-12T01:25:59.457Z,61.50
2017-12-12T01:28:27.123Z,61.30
2017-12-12T01:30:55.552Z,61.30
2017-12-12T01:33:23.159Z,61.30
2017-12-12T01:35:50.809Z,61.60
2017-12-12T01:38:18.577Z,61.10
2017-12-12T01:40:46.204Z,61.10
2017-12-12T01:43:14.132Z,61.40
2017-12-12T01:45:41.746Z,59.90
2017-12-12T01:48:09.618Z,61.40
2017-12-12T01:50:38.154Z,60.10
2017-12-12T01:53:05.765Z,60.10
2017-12-12T01:55:33.777Z,60.10
2017-12-12T01:58:01.411Z,60.10
2017-12-12T02:00:29.102Z,60.10
2017-12-12T02:02:56.746Z,60.30
2017-12-12T02:05:24.383Z,59.80
2017-12-12T02:07:52.819Z,59.80
2017-12-12T02:10:20.438Z,59.80
2017-12-12T02:12:48.105Z,60.40
2017-12-12T02:15:16.745Z,59.60
2017-12-12T02:17:44.439Z,59.90
2017-12-12T02:20:12.115Z,59.20
2017-12-12T02:22:40.495Z,56.40
2017-12-12T02:25:08.236Z,56.40
2017-12-12T02:27:35.895Z,56.90
2017-12-12T02:30:03.522Z,57.30
2017-12-12T02:32:31.165Z,58.00
2017-12-12T02:34:58.782Z,57.40
2017-12-12T02:37:26.402Z,56.90
2017-12-12T02:39:54.081Z,57.20
2017-12-12T02:42:22.495Z,58.10
2017-12-12T02:44:50.892Z,58.10
2017-12-12T02:47:19.116Z,57.90
2017-12-12T02:49:46.782Z,57.30
2017-12-12T02:52:14.873Z,56.80
2017-12-12T02:54:42.512Z,56.60
2017-12-12T02:57:10.160Z,56.80
2017-12-12T02:59:38.186Z,56.70
2017-12-12T03:02:05.795Z,57.00
2017-12-12T03:04:33.442Z,57.30
2017-12-12T03:07:01.051Z,56.60
2017-12-12T03:09:28.794Z,56.60
2017-12-12T03:11:56.453Z,57.00
2017-12-12T03:14:24.073Z,57.00
2017-12-12T03:16:51.714Z,56.40
2017-12-12T03:19:19.347Z,56.90
2017-12-12T03:21:47.008Z,56.60
2017-12-12T03:24:14.663Z,56.50
2017-12-12T03:26:42.276Z,56.30
2017-12-12T03:29:09.945Z,56.20
2017-12-12T03:31:37.574Z,57.50
2017-12-12T03:34:05.236Z,57.10
2017-12-12T03:36:32.870Z,56.20
2017-12-12T03:39:00.481Z,55.80
2017-12-12T03:41:28.929Z,56.20
2017-12-12T03:43:56.559Z,56.10
2017-12-12T03:46:24.205Z,56.50
2017-12-12T03:48:51.818Z,55.90
2017-12-12T03:51:19.548Z,56.20
2017-12-12T03:53:47.190Z,55.50
2017-12-12T03:56:14.814Z,56.50
2017-12-12T03:58:43.251Z,53.30
2017-12-12T04:01:10.872Z,53.00
2017-12-12T04:03:38.610Z,54.50
2017-12-12T04:06:06.262Z,54.30
2017-12-12T04:08:33.874Z,55.90
2017-12-12T04:11:02.286Z,54.30
2017-12-12T04:13:29.905Z,54.20
2017-12-12T04:15:57.527Z,54.50
2017-12-12T04:18:25.198Z,54.40
2017-12-12T04:20:52.809Z,55.00
2017-12-12T04:23:20.526Z,55.20
2017-12-12T04:25:48.242Z,55.40
2017-12-12T04:28:15.867Z,54.80
2017-12-12T04:30:44.294Z,55.80
2017-12-12T04:33:11.906Z,55.80
2017-12-12T04:35:39.674Z,56.50
2017-12-12T04:38:07.317Z,56.80
2017-12-12T04:40:34.927Z,57.50
2017-12-12T04:43:03.339Z,57.90
2017-12-12T04:45:30.966Z,57.90
2017-12-12T04:47:58.703Z,58.60
2017-12-12T04:50:26.362Z,59.10
2017-12-12T04:52:53.973Z,59.90
2017-12-12T04:55:22.383Z,59.70
2017-12-12T04:57:49.997Z,59.70
2017-12-12T05:00:18.318Z,59.40
2017-12-12T05:02:45.926Z,59.30
2017-12-12T05:05:14.078Z,59.80
2017-12-12T05:07:41.715Z,60.60
2017-12-12T05:10:09.398Z,60.20
2017-12-12T05:12:37.045Z,60.00
2017-12-12T05:15:04.674Z,60.90
2017-12-12T05:17:32.306Z,62.00
2017-12-12T05:20:00.030Z,60.50
2017-12-12T05:22:28.602Z,60.50
2017-12-12T05:24:57.000Z,60.10
2017-12-12T05:27:24.621Z,60.10
2017-12-12T05:29:52.242Z,58.40
2017-12-12T05:32:20.664Z,59.20
2017-12-12T05:34:48.437Z,59.20
2017-12-12T05:37:16.101Z,59.00
2017-12-12T05:39:43.722Z,59.50
2017-12-12T05:42:11.336Z,60.30
2017-12-12T05:44:39.986Z,58.50
2017-12-12T05:47:08.980Z,56.10
2017-12-12T05:49:36.686Z,55.90
2017-12-12T05:52:04.445Z,54.50
2017-12-12T05:54:34.033Z,53.30
2017-12-12T05:57:01.695Z,52.70
2017-12-12T05:59:30.086Z,52.70
2017-12-12T06:01:57.772Z,52.70
2017-12-12T06:04:25.431Z,51.20
2017-12-12T06:06:53.051Z,50.80
2017-12-12T06:09:20.694Z,49.20
2017-12-12T06:11:48.426Z,50.20
2017-12-12T06:14:16.069Z,50.70
2017-12-12T06:16:44.241Z,49.60
2017-12-12T06:19:11.868Z,50.00
2017-12-12T06:21:39.601Z,49.50
2017-12-12T06:24:07.998Z,50.50
2017-12-12T06:26:35.667Z,50.40
2017-12-12T06:29:03.286Z,49.80
2017-12-12T06:31:30.920Z,50.90
2017-12-12T06:33:58.685Z,49.80
2017-12-12T06:36:26.354Z,50.10
2017-12-12T06:38:54.016Z,50.20
2017-12-12T06:41:21.629Z,51.20
2017-12-12T06:43:49.337Z,51.40
2017-12-12T06:46:17.775Z,51.40
2017-12-12T06:48:45.390Z,51.40
2017-12-12T06:51:13.043Z,52.20
2017-12-12T06:53:40.684Z,52.30
2017-12-12T06:56:08.315Z,53.30
2017-12-12T06:58:35.950Z,53.80
2017-12-12T07:01:03.550Z,56.10
2017-12-12T07:03:31.202Z,58.40
2017-12-12T07:05:58.829Z,59.40
2017-12-12T07:08:26.445Z,60.30
2017-12-12T07:10:54.100Z,58.90
2017-12-12T07:13:21.705Z,58.00
2017-12-12T07:15:50.116Z,55.00
2017-12-12T07:18:17.739Z,54.90
2017-12-12T07:20:45.391Z,53.50
2017-12-12T07:23:13.033Z,53.70
2017-12-12T07:25:40.638Z,52.90
2017-12-12T07:28:08.493Z,53.70
2017-12-12T07:30:36.104Z,54.50
2017-12-12T07:33:04.635Z,54.40
2017-12-12T07:35:32.285Z,53.30
2017-12-12T07:37:59.913Z,53.30
2017-12-12T07:40:28.330Z,53.80
2017-12-12T07:42:55.950Z,53.80
2017-12-12T07:45:23.619Z,54.20
2017-12-12T07:47:51.337Z,53.30
2017-12-12T07:50:18.974Z,52.60
2017-12-12T07:52:47.018Z,51.10
2017-12-12T07:55:14.621Z,51.80
2017-12-12T07:57:42.230Z,48.30
2017-12-12T08:00:09.946Z,47.20
2017-12-12T08:02:37.561Z,46.60
2017-12-12T08:05:05.460Z,49.30
2017-12-12T08:07:33.843Z,48.20
2017-12-12T08:10:01.454Z,48.10
2017-12-12T08:12:29.102Z,47.90
2017-12-12T08:14:56.713Z,48.30
2017-12-12T08:17:24.341Z,49.70
2017-12-12T08:19:51.959Z,50.10
2017-12-12T08:22:19.702Z,47.50
2017-12-12T08:24:47.348Z,47.20
2017-12-12T08:27:15.726Z,42.90
2017-12-12T08:29:43.409Z,42.80
2017-12-12T08:32:11.019Z,42.50
2017-12-12T08:34:38.790Z,41.60
2017-12-12T08:37:07.008Z,44.60
2017-12-12T08:39:34.642Z,41.30
2017-12-12T08:42:02.283Z,43.30
2017-12-12T08:44:29.886Z,44.20
2017-12-12T08:46:57.503Z,43.20
2017-12-12T08:49:25.167Z,44.20
2017-12-12T08:51:52.796Z,44.70
2017-12-12T08:54:21.210Z,47.20
2017-12-12T08:56:48.821Z,47.40
2017-12-12T08:59:16.430Z,46.30
2017-12-12T09:01:44.102Z,46.20
2017-12-12T09:04:12.479Z,44.90
2017-12-12T09:06:40.133Z,44.90
2017-12-12T09:09:07.786Z,44.80
2017-12-12T09:11:35.398Z,43.20
2017-12-12T09:14:03.799Z,44.60
2017-12-12T09:16:32.223Z,44.60
2017-12-12T09:18:59.890Z,45.90
2017-12-12T09:21:27.497Z,45.70
2017-12-12T09:23:55.897Z,46.50
2017-12-12T09:26:23.535Z,46.50
2017-12-12T09:28:51.927Z,47.50
2017-12-12T09:31:19.701Z,47.50
2017-12-12T09:33:47.313Z,48.30
2017-12-12T09:36:14.917Z,47.80
2017-12-12T09:38:42.556Z,46.70
2017-12-12T09:41:10.179Z,47.50
2017-12-12T09:43:38.282Z,46.10
2017-12-12T09:46:06.662Z,46.80
2017-12-12T09:48:35.038Z,44.20
2017-12-12T09:51:02.683Z,44.20
2017-12-12T09:53:30.292Z,44.70
2017-12-12T09:55:57.943Z,45.50
2017-12-12T09:58:26.313Z,43.30
2017-12-12T10:00:54.686Z,43.50
2017-12-12T10:03:23.102Z,41.80
2017-12-12T10:05:50.714Z,41.80
2017-12-12T10:08:18.505Z,43.30
2017-12-12T10:10:46.144Z,38.70
2017-12-12T10:13:13.752Z,38.00
2017-12-12T10:15:41.438Z,38.60
2017-12-12T10:18:09.302Z,36.90
2017-12-12T10:20:36.939Z,38.20
2017-12-12T10:23:04.541Z,37.20
2017-12-12T10:25:32.152Z,39.10
2017-12-12T10:27:59.828Z,39.60
2017-12-12T10:30:27.434Z,39.70
2017-12-12T10:32:55.082Z,39.90
2017-12-12T10:35:23.296Z,42.00
2017-12-12T10:37:50.903Z,40.40
2017-12-12T10:40:18.694Z,42.60
2017-12-12T10:42:46.299Z,43.90
2017-12-12T10:45:14.718Z,42.10
2017-12-12T10:47:42.322Z,42.20
2017-12-12T10:50:09.935Z,41.60
2017-12-12T10:52:37.574Z,42.50
2017-12-12T10:55:05.267Z,42.30
2017-12-12T10:57:33.674Z,39.40
2017-12-12T11:00:01.290Z,39.30
2017-12-12T11:02:28.902Z,38.50
2017-12-12T11:04:56.541Z,38.90
2017-12-12T11:07:24.148Z,39.90
2017-12-12T11:09:52.583Z,38.80
2017-12-12T11:12:20.951Z,40.40
2017-12-12T11:14:48.674Z,40.30
2017-12-12T11:17:16.318Z,42.70
2017-12-12T11:19:44.819Z,42.40
2017-12-12T11:22:12.665Z,42.40
2017-12-12T11:24:40.269Z,44.50
2017-12-12T11:27:08.114Z,44.20
2017-12-12T11:29:36.065Z,43.70
2017-12-12T11:32:04.463Z,46.20
2017-12-12T11:34:32.862Z,44.90
2017-12-12T11:37:00.510Z,45.70
2017-12-12T11:39:28.269Z,44.80
2017-12-12T11:41:55.906Z,42.20
2017-12-12T11:44:23.517Z,43.60
2017-12-12T11:46:51.946Z,39.60
2017-12-12T11:49:19.681Z,39.60
2017-12-12T11:51:47.298Z,41.90
2017-12-12T11:54:16.847Z,39.00
2017-12-12T11:56:44.458Z,38.20
2017-12-12T11:59:12.126Z,40.50
2017-12-12T12:01:39.752Z,40.10
2017-12-12T12:04:07.641Z,40.40
2017-12-12T12:06:35.274Z,40.20
2017-12-12T12:09:02.890Z,36.70
2017-12-12T12:11:30.524Z,36.60
2017-12-12T12:13:58.158Z,34.80
2017-12-12T12:16:25.769Z,33.10
2017-12-12T12:18:53.411Z,32.00
2017-12-12T12:21:21.038Z,31.60
2017-12-12T12:23:48.727Z,32.50
2017-12-12T12:26:27.793Z,30.80
2017-12-12T12:28:55.502Z,30.80
2017-12-12T12:31:23.116Z,31.00
2017-12-12T12:33:50.730Z,31.30
2017-12-12T12:36:18.575Z,31.70
2017-12-12T12:38:46.624Z,32.40
2017-12-12T12:41:14.260Z,32.10
2017-12-12T12:43:41.870Z,32.70
2017-12-12T12:46:09.598Z,32.80
2017-12-12T12:48:37.242Z,31.80
2017-12-12T12:51:04.874Z,30.80
2017-12-12T12:53:32.577Z,28.90
2017-12-12T12:56:01.014Z,27.70
2017-12-12T12:58:29.187Z,27.80
2017-12-12T13:00:57.610Z,28.70
2017-12-12T13:03:26.177Z,28.70
2017-12-12T13:05:53.817Z,28.10
2017-12-12T13:08:21.450Z,27.30
2017-12-12T13:10:49.060Z,27.90
2017-12-12T13:13:17.463Z,26.50
2017-12-12T13:15:45.067Z,26.40
2017-12-12T13:18:12.710Z,27.60
2017-12-12T13:20:40.313Z,26.60
2017-12-12T13:23:07.939Z,26.60
2017-12-12T13:25:35.586Z,24.40
2017-12-12T13:28:03.201Z,24.90
2017-12-12T13:30:31.617Z,23.70
2017-12-12T13:32:59.295Z,23.70
2017-12-12T13:35:26.905Z,25.60
2017-12-12T13:37:55.433Z,27.10
2017-12-12T13:40:24.773Z,29.10
2017-12-12T13:42:52.411Z,29.10
2017-12-12T13:45:20.027Z,28.80
2017-12-12T13:47:47.813Z,30.00
2017-12-12T13:50:15.470Z,31.50
2017-12-12T13:52:43.078Z,29.90
2017-12-12T13:55:10.713Z,30.30
2017-12-12T13:57:38.393Z,30.20
2017-12-12T14:00:06.019Z,31.10
2017-12-12T14:02:33.670Z,30.90
2017-12-12T14:05:01.286Z,31.00
2017-12-12T14:07:29.760Z,31.60
2017-12-12T14:09:58.190Z,31.70
2017-12-12T14:12:25.802Z,31.60
2017-12-12T14:14:53.446Z,32.70
2017-12-12T14:17:21.053Z,32.30
2017-12-12T14:19:49.513Z,34.10
2017-12-12T14:22:17.890Z,32.50
2017-12-12T14:24:46.444Z,32.40
2017-12-12T14:27:14.105Z,35.10
2017-12-12T14:29:42.496Z,33.60
2017-12-12T14:32:10.411Z,33.40
2017-12-12T14:34:38.141Z,33.50
2017-12-12T14:37:05.745Z,33.20
2017-12-12T14:39:33.402Z,32.50
2017-12-12T14:42:01.001Z,34.70
2017-12-12T14:44:29.586Z,34.30
2017-12-12T14:46:57.950Z,33.80
2017-12-12T14:49:25.560Z,33.80
2017-12-12T14:51:53.217Z,34.30
2017-12-12T14:54:20.826Z,36.60
2017-12-12T14:56:48.623Z,35.30
2017-12-12T14:59:17.007Z,34.90
2017-12-12T15:01:44.617Z,34.90
2017-12-12T15:04:12.263Z,35.10
2017-12-12T15:06:39.890Z,35.00
2017-12-12T15:09:07.534Z,35.80
2017-12-12T15:11:35.154Z,37.50
2017-12-12T15:14:02.808Z,36.30
2017-12-12T15:16:30.477Z,37.70
2017-12-12T15:18:58.249Z,36.40
2017-12-12T15:21:25.896Z,35.80
2017-12-12T15:23:53.549Z,35.90
2017-12-12T15:26:21.994Z,36.20
2017-12-12T15:28:49.769Z,36.00
2017-12-12T15:31:18.282Z,35.10
2017-12-12T15:33:45.926Z,35.00
2017-12-12T15:36:13.560Z,36.70
2017-12-12T15:38:41.185Z,35.70
2017-12-12T15:41:09.669Z,35.60
2017-12-12T15:43:37.467Z,35.60
2017-12-12T15:46:05.142Z,37.50
2017-12-12T15:48:33.550Z,36.40
2017-12-12T15:51:01.941Z,36.30
2017-12-12T15:53:29.582Z,37.00
2017-12-12T15:55:57.211Z,37.60
2017-12-12T15:58:24.864Z,37.50
2017-12-12T16:00:52.508Z,37.50
2017-12-12T16:03:20.118Z,37.90
2017-12-12T16:05:47.784Z,38.00
2017-12-12T16:08:15.393Z,37.90
2017-12-12T16:10:43.073Z,38.00
2017-12-12T16:13:10.709Z,38.70
2017-12-12T16:15:38.310Z,39.40
2017-12-12T16:18:05.991Z,39.80
2017-12-12T16:20:34.398Z,41.10
2017-12-12T16:23:02.046Z,41.10
2017-12-12T16:25:29.770Z,42.00
2017-12-12T16:27:58.765Z,42.10
2017-12-12T16:30:26.419Z,43.80
2017-12-12T16:32:54.295Z,44.30
2017-12-12T16:35:21.949Z,45.70
2017-12-12T16:37:49.611Z,44.00
2017-12-12T16:40:18.732Z,44.40
2017-12-12T16:42:46.463Z,43.70
2017-12-12T16:45:14.068Z,44.50
2017-12-12T16:47:41.705Z,43.80
2017-12-12T16:50:09.365Z,44.50
2017-12-12T16:52:36.985Z,45.40
2017-12-12T16:55:04.622Z,44.20
2017-12-12T16:57:33.123Z,44.50
2017-12-12T17:00:00.766Z,44.50
2017-12-12T17:02:28.534Z,45.00
2017-12-12T17:04:56.931Z,45.30
2017-12-12T17:07:24.663Z,45.30
2017-12-12T17:09:52.283Z,44.40
2017-12-12T17:12:22.687Z,44.70
2017-12-12T17:14:50.338Z,44.80
2017-12-12T17:17:17.954Z,45.20
2017-12-12T17:19:45.606Z,45.60
2017-12-12T17:22:13.297Z,44.80
2017-12-12T17:24:41.703Z,44.60
2017-12-12T17:27:09.364Z,44.60
2017-12-12T17:29:38.090Z,44.80
2017-12-12T17:32:05.966Z,47.30
2017-12-12T17:34:33.807Z,46.50
2017-12-12T17:37:03.164Z,45.40
2017-12-12T17:39:31.018Z,45.00
2017-12-12T17:41:59.381Z,45.90
2017-12-12T17:44:28.357Z,46.50
2017-12-12T17:46:56.026Z,46.40
2017-12-12T17:49:23.662Z,46.30
2017-12-12T17:51:51.270Z,46.50
2017-12-12T17:54:18.934Z,46.90
2017-12-12T17:56:47.513Z,46.30
2017-12-12T17:59:16.660Z,45.40
2017-12-12T18:01:47.286Z,45.40
2017-12-12T18:04:14.902Z,45.50
2017-12-12T18:06:42.549Z,45.80
2017-12-12T18:09:10.198Z,45.30
2017-12-12T18:11:37.837Z,45.30
2017-12-12T18:14:06.402Z,44.50
2017-12-12T18:16:37.796Z,45.20
2017-12-12T18:19:06.366Z,44.80
2017-12-12T18:21:35.666Z,43.90
2017-12-12T18:24:08.186Z,43.90
2017-12-12T18:26:35.850Z,43.70
2017-12-12T18:29:04.224Z,42.40
2017-12-12T18:31:33.626Z,42.30
2017-12-12T18:34:01.814Z,42.70
2017-12-12T18:36:29.614Z,41.60
2017-12-12T18:38:58.014Z,40.10
2017-12-12T18:41:25.630Z,40.10
2017-12-12T18:43:54.373Z,39.70
2017-12-12T18:46:22.012Z,40.60
2017-12-12T18:48:49.774Z,40.80
2017-12-12T18:51:17.431Z,39.90
2017-12-12T18:53:45.095Z,39.50
2017-12-12T18:56:13.535Z,39.20
2017-12-12T18:58:41.469Z,39.20
2017-12-12T19:01:09.998Z,40.00
2017-12-12T19:03:37.636Z,39.40
2017-12-12T19:06:05.886Z,39.10
2017-12-12T19:08:33.529Z,39.90
2017-12-12T19:11:01.150Z,39.40
2017-12-12T19:13:28.921Z,38.90
2017-12-12T19:15:56.585Z,38.30
2017-12-12T19:18:24.218Z,38.30
2017-12-12T19:20:52.634Z,37.30
2017-12-12T19:23:20.294Z,36.70
2017-12-12T19:25:47.924Z,36.80
2017-12-12T19:28:15.615Z,36.80
2017-12-12T19:30:44.033Z,37.60
2017-12-12T19:33:11.696Z,37.50
2017-12-12T19:35:40.398Z,36.30
2017-12-12T19:38:08.766Z,36.80
2017-12-12T19:40:37.230Z,36.20
2017-12-12T19:43:04.906Z,35.50
2017-12-12T19:45:32.564Z,36.10
2017-12-12T19:48:00.243Z,36.90
2017-12-12T19:50:27.856Z,35.90
2017-12-12T19:52:55.518Z,37.20
2017-12-12T19:55:23.197Z,36.10
2017-12-12T19:57:50.838Z,35.60
2017-12-12T20:00:18.715Z,36.20
2017-12-12T20:02:46.357Z,35.20
2017-12-12T20:05:14.781Z,36.50
2017-12-12T20:07:42.445Z,36.50
2017-12-12T20:10:10.150Z,36.90
2017-12-12T20:12:37.776Z,36.50
2017-12-12T20:15:05.458Z,37.30
2017-12-12T20:17:33.111Z,36.60
2017-12-12T20:20:00.810Z,36.30
2017-12-12T20:22:29.450Z,36.10
2017-12-12T20:24:57.079Z,36.00
2017-12-12T20:27:24.753Z,35.70
2017-12-12T20:29:53.530Z,36.50
2017-12-12T20:32:21.166Z,36.30
2017-12-12T20:34:48.851Z,36.40
2017-12-12T20:37:16.482Z,36.50
2017-12-12T20:39:47.912Z,36.20
2017-12-12T20:42:17.802Z,36.20
2017-12-12T20:44:45.418Z,36.60
2017-12-12T20:47:19.685Z,36.60
2017-12-12T20:49:47.337Z,36.80
2017-12-12T20:52:15.015Z,36.20
2017-12-12T20:54:42.715Z,36.60
2017-12-12T20:57:10.345Z,37.40
2017-12-12T20:59:43.637Z,36.70
2017-12-12T21:02:12.014Z,37.10
2017-12-12T21:04:39.702Z,37.10
2017-12-12T21:07:16.812Z,37.60
2017-12-12T21:09:45.662Z,37.00
2017-12-12T21:12:13.302Z,37.60
2017-12-12T21:14:41.833Z,36.60
2017-12-12T21:17:09.550Z,36.70
2017-12-12T21:19:38.052Z,36.80
2017-12-12T21:22:09.479Z,36.70
2017-12-12T21:24:38.275Z,37.30
2017-12-12T21:27:08.376Z,36.90
2017-12-12T21:29:38.757Z,36.50
2017-12-12T21:32:06.373Z,36.70
2017-12-12T21:34:36.631Z,36.80
2017-12-12T21:37:04.284Z,36.60
2017-12-12T21:39:31.914Z,36.40
2017-12-12T21:41:59.677Z,37.20
2017-12-12T21:44:31.174Z,36.70
2017-12-12T21:46:59.637Z,36.90
2017-12-12T21:49:28.162Z,36.70
2017-12-12T21:52:01.782Z,36.70
2017-12-12T21:54:30.974Z,37.00
2017-12-12T21:56:59.705Z,37.00
2017-12-12T21:59:33.838Z,36.30
2017-12-12T22:02:02.662Z,36.40
2017-12-12T22:04:31.300Z,36.30
2017-12-12T22:06:58.953Z,36.20
2017-12-12T22:09:26.571Z,36.20
2017-12-12T22:11:54.224Z,36.00
2017-12-12T22:14:27.487Z,36.30
2017-12-12T22:16:55.184Z,36.20
2017-12-12T22:19:22.797Z,36.20
2017-12-12T22:21:50.431Z,36.50
2017-12-12T22:24:18.846Z,37.20
2017-12-12T22:26:52.064Z,37.20
2017-12-12T22:29:20.385Z,37.90
2017-12-12T22:31:48.211Z,37.40
2017-12-12T22:34:15.834Z,37.30
2017-12-12T22:36:44.458Z,37.10
2017-12-12T22:39:12.095Z,37.10
2017-12-12T22:41:40.379Z,36.90
2017-12-12T22:44:08.050Z,37.60
2017-12-12T22:46:36.452Z,37.00
2017-12-12T22:49:04.095Z,36.90
2017-12-12T22:51:31.721Z,37.10
2017-12-12T22:54:00.150Z,37.40
2017-12-12T22:56:27.795Z,37.40
2017-12-12T22:58:55.418Z,38.30
2017-12-12T23:01:23.076Z,37.50
2017-12-12T23:03:50.704Z,37.90
2017-12-12T23:06:18.399Z,37.50
2017-12-12T23:08:46.061Z,38.50
2017-12-12T23:11:14.468Z,38.90
2017-12-12T23:13:42.118Z,38.90
2017-12-12T23:16:09.782Z,38.30
2017-12-12T23:18:37.522Z,38.00
2017-12-12T23:21:05.185Z,39.40
2017-12-12T23:23:32.801Z,38.00
2017-12-12T23:26:00.458Z,38.00
2017-12-12T23:28:28.083Z,38.60
2017-12-12T23:30:55.768Z,39.50
2017-12-12T23:33:23.460Z,39.10
2017-12-12T23:35:51.075Z,39.20
2017-12-12T23:38:20.031Z,39.40
2017-12-12T23:40:47.732Z,38.60
2017-12-12T23:43:15.385Z,38.80
2017-12-12T23:45:43.047Z,38.80
2017-12-12T23:48:10.679Z,39.00
2017-12-12T23:50:38.908Z,38.90
2017-12-12T23:53:07.718Z,40.40
2017-12-12T23:55:35.349Z,40.10
2017-12-12T23:58:03.792Z,39.80
